Time;durP1;ratioP1;P1;durP2;ratioP2;P2;SDS_P1;SDS_P2;PMS_P1;PMS_P2;Temp;Humidity;BMP_temperature;BMP_pressure;BME280_temperature;BME280_humidity;BME280_pressure;Samples;Min_cycle;Max_cycle;Signal;HPM_P1;HPM_P2
2022/10/08 00:00:25;;;;;;;;;;;12.50;99.90;;;;;;5014085;28;19921;-71
2022/10/08 00:02:52;;;;;;;;;;;12.60;99.90;;;;;;5005201;28;20353;-71
2022/10/08 00:05:17;;;;;;;;;;;12.60;99.90;;;;;;5006190;28;20399;-71
2022/10/08 00:07:44;;;;;;;;;;;12.50;99.90;;;;;;5031800;28;19960;-71
2022/10/08 00:10:10;;;;;;;;;;;12.50;99.90;;;;;;5030925;28;19925;-71
2022/10/08 00:12:35;;;;;;;;;;;12.50;99.90;;;;;;5013989;28;19975;-71
2022/10/08 00:15:01;;;;;;;;;;;12.70;99.90;;;;;;5031835;28;19927;-71
2022/10/08 00:17:27;;;;;;;;;;;12.50;99.90;;;;;;5030929;28;19921;-71
2022/10/08 00:19:56;;;;;;;;;;;12.60;99.90;;;;;;5031737;28;19921;-71
2022/10/08 00:22:22;;;;;;;;;;;12.50;99.90;;;;;;5014924;28;19928;-71
2022/10/08 00:24:48;;;;;;;;;;;12.50;99.90;;;;;;5030919;28;19921;-71
2022/10/08 00:27:15;;;;;;;;;;;12.50;99.90;;;;;;5018450;28;19929;-71
2022/10/08 00:29:43;;;;;;;;;;;12.50;99.90;;;;;;5035358;28;20353;-71
2022/10/08 00:32:10;;;;;;;;;;;12.50;99.90;;;;;;5016747;28;19979;-71
2022/10/08 00:34:36;;;;;;;;;;;12.50;99.90;;;;;;5017421;28;20292;-71
2022/10/08 00:37:01;;;;;;;;;;;12.40;99.90;;;;;;5035251;28;19971;-70
2022/10/08 00:39:27;;;;;;;;;;;12.50;99.90;;;;;;5008802;28;20316;-71
2022/10/08 00:41:53;;;;;;;;;;;12.40;99.90;;;;;;5009673;28;19921;-70
2022/10/08 00:44:37;;;;;;;;;;;12.40;99.90;;;;;;5034583;28;19925;-71
2022/10/08 00:47:03;;;;;;;;;;;12.30;99.90;;;;;;5017723;28;20830;-70
2022/10/08 00:49:29;;;;;;;;;;;12.30;99.90;;;;;;5034308;28;19980;-71
2022/10/08 00:51:55;;;;;;;;;;;12.30;99.90;;;;;;5016663;28;19991;-71
2022/10/08 00:54:21;;;;;;;;;;;12.30;99.90;;;;;;5017269;28;20018;-70
2022/10/08 00:56:51;;;;;;;;;;;12.30;99.90;;;;;;5035114;28;20395;-70
2022/10/08 00:59:17;;;;;;;;;;;12.20;99.90;;;;;;5012210;28;19925;-71
2022/10/08 01:01:43;;;;;;;;;;;12.20;99.90;;;;;;5035069;28;19921;-71
2022/10/08 01:04:09;;;;;;;;;;;12.00;99.90;;;;;;5017234;28;20372;-71
2022/10/08 01:06:44;;;;;;;;;;;11.90;99.90;;;;;;5016005;28;19972;-71
2022/10/08 01:09:12;;;;;;;;;;;11.90;99.90;;;;;;5016744;28;20296;-70
2022/10/08 01:11:41;;;;;;;;;;;11.80;99.90;;;;;;5012580;28;19928;-71
2022/10/08 01:14:19;;;;;;;;;;;11.80;99.90;;;;;;5016164;28;20028;-71
2022/10/08 01:16:50;;;;;;;;;;;11.60;99.90;;;;;;5013848;28;19921;-71
2022/10/08 01:19:35;;;;;;;;;;;11.60;99.90;;;;;;5017267;28;19921;-70
2022/10/08 01:22:18;;;;;;;;;;;11.50;99.90;;;;;;5017390;28;19925;-70
2022/10/08 01:27:42;;;;;;;;;;;11.30;99.90;;;;;;5032549;28;19929;-70
2022/10/08 01:30:10;;;;;;;;;;;11.20;99.90;;;;;;5013191;28;20011;-70
2022/10/08 01:32:56;;;;;;;;;;;11.10;99.90;;;;;;5034020;28;19928;-70
2022/10/08 01:35:28;;;;;;;;;;;11.00;99.90;;;;;;5031549;28;19975;-71
2022/10/08 01:37:54;;;;;;;;;;;11.00;99.90;;;;;;5017028;28;20385;-70
2022/10/08 01:40:22;;;;;;;;;;;10.90;99.90;;;;;;5016297;28;19921;-70
2022/10/08 01:42:51;;;;;;;;;;;10.80;99.90;;;;;;5016002;28;20395;-70
2022/10/08 01:45:18;;;;;;;;;;;10.80;99.90;;;;;;5016221;28;19975;-71
2022/10/08 01:47:45;;;;;;;;;;;10.70;99.90;;;;;;5016016;28;19947;-71
2022/10/08 01:50:11;;;;;;;;;;;10.70;99.90;;;;;;5015711;28;19921;-70
2022/10/08 01:52:41;;;;;;;;;;;10.70;99.90;;;;;;5016113;28;19929;-70
2022/10/08 01:55:11;;;;;;;;;;;10.70;99.90;;;;;;5016217;28;19979;-70
2022/10/08 01:57:38;;;;;;;;;;;10.70;99.90;;;;;;5033693;28;19928;-70
2022/10/08 02:00:08;;;;;;;;;;;10.70;99.90;;;;;;5016644;28;20392;-71
2022/10/08 02:02:34;;;;;;;;;;;10.70;99.90;;;;;;5029395;28;19943;-70
2022/10/08 02:04:59;;;;;;;;;;;10.80;99.90;;;;;;5016235;28;20377;-69
2022/10/08 02:07:29;;;;;;;;;;;10.80;99.90;;;;;;5015478;28;19925;-70
2022/10/08 02:10:04;;;;;;;;;;;10.80;99.90;;;;;;5015606;28;20443;-70
2022/10/08 02:12:30;;;;;;;;;;;10.80;99.90;;;;;;5011555;28;19944;-70
2022/10/08 02:14:56;;;;;;;;;;;10.90;99.90;;;;;;5033781;28;20369;-70
2022/10/08 02:17:25;;;;;;;;;;;11.00;99.90;;;;;;5014706;28;19928;-70
2022/10/08 02:19:51;;;;;;;;;;;10.80;99.90;;;;;;5033356;28;19921;-70
2022/10/08 02:22:18;;;;;;;;;;;10.80;99.90;;;;;;5015990;28;19982;-71
2022/10/08 02:24:51;;;;;;;;;;;10.80;99.90;;;;;;5015258;28;20390;-70
2022/10/08 02:27:21;;;;;;;;;;;10.80;99.90;;;;;;5015441;28;19951;-70
2022/10/08 02:30:12;;;;;;;;;;;10.80;99.90;;;;;;5014980;28;19931;-70
2022/10/08 02:32:50;;;;;;;;;;;10.70;99.90;;;;;;5009939;28;20292;-70
2022/10/08 02:35:21;;;;;;;;;;;10.80;99.90;;;;;;5015643;28;20024;-70
2022/10/08 02:37:51;;;;;;;;;;;10.80;99.90;;;;;;5014936;28;19928;-70
2022/10/08 02:40:17;;;;;;;;;;;10.80;99.90;;;;;;5015269;28;19968;-70
2022/10/08 02:42:45;;;;;;;;;;;10.80;99.90;;;;;;5015525;28;19963;-70
2022/10/08 02:45:11;;;;;;;;;;;10.80;99.90;;;;;;5014463;28;20277;-70
2022/10/08 02:47:37;;;;;;;;;;;10.70;99.90;;;;;;5033167;28;19921;-70
2022/10/08 02:50:05;;;;;;;;;;;10.70;99.90;;;;;;5015292;28;19943;-70
2022/10/08 02:52:35;;;;;;;;;;;10.70;99.90;;;;;;5013768;28;19925;-70
2022/10/08 02:55:02;;;;;;;;;;;11.00;99.90;;;;;;5033425;28;20273;-70
2022/10/08 02:57:30;;;;;;;;;;;10.80;99.90;;;;;;5015153;28;20384;-70
2022/10/08 02:59:57;;;;;;;;;;;10.90;99.90;;;;;;5032401;28;19921;-70
2022/10/08 03:02:31;;;;;;;;;;;11.10;99.90;;;;;;5014809;28;19967;-70
2022/10/08 03:05:00;;;;;;;;;;;10.90;99.90;;;;;;5011651;28;19921;-70
2022/10/08 03:07:28;;;;;;;;;;;10.90;99.90;;;;;;5032849;28;20012;-70
2022/10/08 03:09:55;;;;;;;;;;;11.00;99.90;;;;;;5033121;28;19944;-70
2022/10/08 03:12:20;;;;;;;;;;;11.00;99.90;;;;;;5002136;28;19922;-71
2022/10/08 03:14:47;;;;;;;;;;;11.00;99.90;;;;;;5007162;28;19921;-70
2022/10/08 03:17:17;;;;;;;;;;;11.10;99.90;;;;;;5007028;28;19925;-70
2022/10/08 03:19:42;;;;;;;;;;;11.10;99.90;;;;;;5013904;28;19921;-70
2022/10/08 03:22:08;;;;;;;;;;;11.10;99.90;;;;;;5014639;28;20269;-70
2022/10/08 03:24:34;;;;;;;;;;;11.00;99.90;;;;;;5014245;28;19987;-70
2022/10/08 03:26:59;;;;;;;;;;;11.10;99.90;;;;;;5032312;28;19976;-70
2022/10/08 03:29:25;;;;;;;;;;;11.00;99.90;;;;;;5032141;28;19921;-70
2022/10/08 03:31:50;;;;;;;;;;;11.00;99.90;;;;;;5014753;28;19921;-70
2022/10/08 03:34:16;;;;;;;;;;;11.00;99.90;;;;;;5031576;28;19925;-70
2022/10/08 03:36:42;;;;;;;;;;;11.60;99.90;;;;;;5014600;28;19921;-70
2022/10/08 03:39:09;;;;;;;;;;;10.90;99.90;;;;;;5013272;28;19921;-71
2022/10/08 03:41:34;;;;;;;;;;;11.00;99.90;;;;;;5013438;28;19928;-70
2022/10/08 03:44:00;;;;;;;;;;;10.80;99.90;;;;;;5014514;28;20285;-70
2022/10/08 03:46:28;;;;;;;;;;;10.80;99.90;;;;;;5014336;28;19921;-70
2022/10/08 03:48:54;;;;;;;;;;;10.80;99.90;;;;;;5013583;28;20367;-70
2022/10/08 03:51:20;;;;;;;;;;;10.80;99.90;;;;;;5013955;28;19979;-70
2022/10/08 03:53:51;;;;;;;;;;;10.70;99.90;;;;;;5013975;28;19921;-71
2022/10/08 03:56:18;;;;;;;;;;;10.70;99.90;;;;;;5027483;28;20290;-70
2022/10/08 03:58:44;;;;;;;;;;;10.70;99.90;;;;;;5014784;28;19967;-70
2022/10/08 04:01:11;;;;;;;;;;;10.70;99.90;;;;;;5031201;28;19972;-70
2022/10/08 04:03:37;;;;;;;;;;;10.70;99.90;;;;;;5031427;28;20400;-70
2022/10/08 04:06:02;;;;;;;;;;;10.90;99.90;;;;;;5014777;28;19925;-70
2022/10/08 04:08:28;;;;;;;;;;;10.70;99.90;;;;;;5012743;28;19921;-70
2022/10/08 04:10:53;;;;;;;;;;;10.60;99.90;;;;;;5032048;28;19928;-70
2022/10/08 04:13:19;;;;;;;;;;;10.70;99.90;;;;;;5011192;28;19927;-70
2022/10/08 04:15:46;;;;;;;;;;;10.70;99.90;;;;;;5031338;28;19927;-70
2022/10/08 04:18:12;;;;;;;;;;;10.70;99.90;;;;;;5013883;28;19917;-70
2022/10/08 04:20:39;;;;;;;;;;;10.70;99.90;;;;;;5026418;28;19928;-70
2022/10/08 04:23:05;;;;;;;;;;;10.70;99.90;;;;;;5030949;28;20347;-70
2022/10/08 04:25:30;;;;;;;;;;;10.70;99.90;;;;;;5012602;28;19928;-69
2022/10/08 04:27:56;;;;;;;;;;;10.60;99.90;;;;;;5014341;28;20287;-70
2022/10/08 04:30:23;;;;;;;;;;;10.60;99.90;;;;;;5030962;28;20350;-69
2022/10/08 04:32:48;;;;;;;;;;;10.60;99.90;;;;;;5014492;28;20343;-69
2022/10/08 04:35:14;;;;;;;;;;;10.60;99.90;;;;;;5013993;28;19925;-70
2022/10/08 04:37:39;;;;;;;;;;;10.60;99.90;;;;;;5030946;28;19928;-69
2022/10/08 04:40:05;;;;;;;;;;;10.50;99.90;;;;;;5010316;28;19981;-70
2022/10/08 04:42:30;;;;;;;;;;;10.50;99.90;;;;;;5014130;28;19921;-70
2022/10/08 04:44:56;;;;;;;;;;;10.50;99.90;;;;;;5013130;28;19921;-69
2022/10/08 04:47:21;;;;;;;;;;;10.50;99.90;;;;;;5013846;28;20281;-69
2022/10/08 04:49:47;;;;;;;;;;;10.60;99.90;;;;;;5031353;28;19921;-69
2022/10/08 04:52:15;;;;;;;;;;;10.40;99.90;;;;;;5012939;28;20016;-69
2022/10/08 04:54:41;;;;;;;;;;;10.40;99.90;;;;;;5031304;28;19921;-69
2022/10/08 04:57:06;;;;;;;;;;;10.40;99.90;;;;;;5014305;28;19928;-69
2022/10/08 04:59:32;;;;;;;;;;;10.50;99.90;;;;;;5012754;28;19925;-69
2022/10/08 05:01:57;;;;;;;;;;;10.40;99.90;;;;;;5031850;28;19921;-69
2022/10/08 05:04:26;;;;;;;;;;;10.50;99.90;;;;;;5013126;28;19925;-70
2022/10/08 05:06:54;;;;;;;;;;;10.40;99.90;;;;;;5013629;28;19929;-69
2022/10/08 05:09:20;;;;;;;;;;;10.40;99.90;;;;;;5033534;28;20406;-69
2022/10/08 05:11:45;;;;;;;;;;;10.50;99.90;;;;;;5034582;28;19916;-69
2022/10/08 05:14:11;;;;;;;;;;;10.50;99.90;;;;;;5017082;28;20262;-69
2022/10/08 05:16:37;;;;;;;;;;;10.50;99.90;;;;;;5035091;28;19968;-70
2022/10/08 05:19:03;;;;;;;;;;;10.40;99.90;;;;;;5016771;28;19921;-69
2022/10/08 05:21:29;;;;;;;;;;;10.40;99.90;;;;;;5013112;28;19921;-69
2022/10/08 05:23:56;;;;;;;;;;;10.40;99.90;;;;;;5017340;28;19921;-69
2022/10/08 05:26:23;;;;;;;;;;;10.40;99.90;;;;;;5033367;28;19921;-69
2022/10/08 05:28:52;;;;;;;;;;;10.40;99.90;;;;;;5035026;28;19925;-70
2022/10/08 05:31:17;;;;;;;;;;;10.40;99.90;;;;;;5034415;28;20377;-70
2022/10/08 05:33:43;;;;;;;;;;;10.50;99.90;;;;;;5016010;28;19921;-69
2022/10/08 05:36:15;;;;;;;;;;;10.50;99.90;;;;;;5028790;28;19925;-69
2022/10/08 05:38:42;;;;;;;;;;;10.50;99.90;;;;;;5034094;28;19921;-69
2022/10/08 05:41:12;;;;;;;;;;;10.50;99.90;;;;;;5015506;28;20285;-69
2022/10/08 05:43:38;;;;;;;;;;;10.60;99.90;;;;;;5034234;28;19974;-69
2022/10/08 05:46:04;;;;;;;;;;;10.60;99.90;;;;;;5015456;28;20097;-70
2022/10/08 05:48:29;;;;;;;;;;;10.70;99.90;;;;;;5014958;28;19932;-71
2022/10/08 05:50:55;;;;;;;;;;;10.80;99.90;;;;;;5034233;28;20313;-69
2022/10/08 05:53:21;;;;;;;;;;;11.00;99.90;;;;;;5032921;28;19948;-70
2022/10/08 05:55:46;;;;;;;;;;;11.20;99.90;;;;;;5015050;28;19935;-70
2022/10/08 05:58:12;;;;;;;;;;;11.20;99.90;;;;;;5033921;28;19917;-70
2022/10/08 06:00:37;;;;;;;;;;;11.20;99.90;;;;;;5015916;28;19921;-70
2022/10/08 06:03:03;;;;;;;;;;;11.10;99.90;;;;;;5015080;28;19921;-70
2022/10/08 06:05:28;;;;;;;;;;;11.00;99.90;;;;;;5012171;28;20337;-70
2022/10/08 06:07:56;;;;;;;;;;;10.90;99.90;;;;;;5015696;28;19960;-69
2022/10/08 06:10:22;;;;;;;;;;;10.90;99.90;;;;;;5029540;28;20384;-70
2022/10/08 06:12:48;;;;;;;;;;;10.80;99.90;;;;;;5033462;28;19925;-70
2022/10/08 06:15:13;;;;;;;;;;;10.70;99.90;;;;;;5015476;28;20266;-69
2022/10/08 06:17:39;;;;;;;;;;;10.70;99.90;;;;;;5014927;28;20336;-70
2022/10/08 06:20:10;;;;;;;;;;;10.70;99.90;;;;;;5032099;28;20003;-70
2022/10/08 06:22:36;;;;;;;;;;;10.70;99.90;;;;;;5014534;28;19926;-70
2022/10/08 06:25:01;;;;;;;;;;;10.80;99.90;;;;;;5015697;28;19970;-70
2022/10/08 06:27:27;;;;;;;;;;;10.90;99.90;;;;;;5033765;28;20008;-70
2022/10/08 06:29:52;;;;;;;;;;;11.10;99.90;;;;;;5015125;28;20023;-70
2022/10/08 06:32:18;;;;;;;;;;;10.90;99.90;;;;;;5015650;28;19921;-69
2022/10/08 06:34:43;;;;;;;;;;;10.80;99.90;;;;;;5011256;28;19929;-70
2022/10/08 06:37:09;;;;;;;;;;;10.80;99.90;;;;;;5007228;28;19928;-70
2022/10/08 06:39:34;;;;;;;;;;;10.80;99.90;;;;;;5007149;28;19925;-71
2022/10/08 06:42:00;;;;;;;;;;;10.80;99.90;;;;;;5015160;28;19921;-69
2022/10/08 06:44:25;;;;;;;;;;;10.70;99.90;;;;;;5014024;28;20014;-70
2022/10/08 06:46:54;;;;;;;;;;;10.70;99.90;;;;;;5013942;28;19920;-71
2022/10/08 06:49:21;;;;;;;;;;;10.60;99.90;;;;;;5013889;28;19921;-71
2022/10/08 06:51:46;;;;;;;;;;;10.60;99.90;;;;;;5031772;28;19921;-71
2022/10/08 06:54:14;;;;;;;;;;;10.60;99.90;;;;;;5014761;28;20302;-70
2022/10/08 06:56:40;;;;;;;;;;;10.60;99.90;;;;;;5014567;28;20356;-71
2022/10/08 06:59:06;;;;;;;;;;;10.80;99.90;;;;;;5014203;28;20554;-71
2022/10/08 07:01:31;;;;;;;;;;;10.70;99.90;;;;;;5014516;28;19975;-70
2022/10/08 07:03:59;;;;;;;;;;;10.80;99.90;;;;;;5031525;28;20327;-71
2022/10/08 07:06:25;;;;;;;;;;;10.90;99.90;;;;;;5014163;28;19925;-71
2022/10/08 07:08:54;;;;;;;;;;;11.00;99.90;;;;;;5031382;28;19944;-69
2022/10/08 07:11:23;;;;;;;;;;;11.10;99.90;;;;;;5031038;28;19921;-71
2022/10/08 07:13:48;;;;;;;;;;;11.30;99.90;;;;;;5012556;28;19921;-70
2022/10/08 07:16:15;;;;;;;;;;;11.50;99.90;;;;;;5014496;28;19925;-69
2022/10/08 07:18:41;;;;;;;;;;;11.60;99.90;;;;;;5012493;28;19924;-71
2022/10/08 07:21:07;;;;;;;;;;;11.70;99.90;;;;;;5013993;28;19993;-69
2022/10/08 07:23:33;;;;;;;;;;;11.80;99.90;;;;;;5031677;28;19925;-70
2022/10/08 07:25:59;;;;;;;;;;;12.10;99.90;;;;;;5013378;28;19966;-70
2022/10/08 07:28:25;;;;;;;;;;;12.10;99.90;;;;;;5013702;28;19932;-70
2022/10/08 07:30:51;;;;;;;;;;;12.20;99.90;;;;;;5011151;28;20387;-70
2022/10/08 07:33:16;;;;;;;;;;;12.20;99.90;;;;;;5030514;28;19921;-72
2022/10/08 07:35:42;;;;;;;;;;;12.30;99.90;;;;;;5031517;28;19968;-69
2022/10/08 07:38:07;;;;;;;;;;;12.40;99.90;;;;;;5030955;28;19936;-69
2022/10/08 07:40:36;;;;;;;;;;;12.50;99.90;;;;;;5012020;28;20393;-69
2022/10/08 07:43:03;;;;;;;;;;;12.80;99.90;;;;;;5013137;28;19925;-69
2022/10/08 07:45:30;;;;;;;;;;;13.00;99.90;;;;;;5031060;28;19975;-69
2022/10/08 07:47:55;;;;;;;;;;;13.20;99.90;;;;;;5030871;28;19921;-70
2022/10/08 07:50:21;;;;;;;;;;;13.50;99.90;;;;;;5031328;28;20019;-71
2022/10/08 07:52:47;;;;;;;;;;;14.10;99.90;;;;;;5031598;28;19921;-71
2022/10/08 07:55:15;;;;;;;;;;;15.10;99.90;;;;;;5013604;28;19925;-70
2022/10/08 07:57:41;;;;;;;;;;;16.40;99.90;;;;;;5031009;28;20048;-72
2022/10/08 08:00:07;;;;;;;;;;;17.10;99.90;;;;;;5014320;28;20345;-80
2022/10/08 08:02:32;;;;;;;;;;;17.90;99.90;;;;;;5010693;28;19947;-73
2022/10/08 08:04:58;;;;;;;;;;;18.70;99.90;;;;;;5013864;28;19921;-77
2022/10/08 08:07:23;;;;;;;;;;;18.70;99.90;;;;;;5031184;28;19921;-74
2022/10/08 08:09:49;;;;;;;;;;;17.90;99.60;;;;;;5030733;28;19972;-74
2022/10/08 08:12:35;;;;;;;;;;;17.20;99.90;;;;;;5031797;28;19932;-73
2022/10/08 08:15:00;;;;;;;;;;;16.50;99.90;;;;;;5012753;28;20004;-72
2022/10/08 08:17:29;;;;;;;;;;;15.90;99.90;;;;;;5013674;28;19928;-71
2022/10/08 08:19:54;;;;;;;;;;;16.20;99.90;;;;;;5032292;28;19932;-70
2022/10/08 08:22:20;;;;;;;;;;;16.60;99.90;;;;;;5012715;28;19921;-75
2022/10/08 08:24:45;;;;;;;;;;;16.70;99.90;;;;;;5031717;28;19921;-74
2022/10/08 08:27:11;;;;;;;;;;;17.20;99.90;;;;;;5014294;28;19943;-78
2022/10/08 08:29:36;;;;;;;;;;;18.40;99.90;;;;;;5012355;28;20351;-73
2022/10/08 08:32:05;;;;;;;;;;;19.70;98.80;;;;;;5031562;28;19925;-71
2022/10/08 08:34:31;;;;;;;;;;;20.80;96.90;;;;;;5030155;28;20488;-69
2022/10/08 08:36:57;;;;;;;;;;;21.90;95.20;;;;;;5011993;28;19921;-71
2022/10/08 08:39:24;;;;;;;;;;;22.70;94.50;;;;;;5012052;28;20265;-71
2022/10/08 08:41:54;;;;;;;;;;;23.30;91.90;;;;;;5012797;28;19929;-71
2022/10/08 08:44:20;;;;;;;;;;;23.50;90.10;;;;;;5013949;28;20385;-71
2022/10/08 08:47:04;;;;;;;;;;;23.20;89.70;;;;;;5012265;28;19991;-71
2022/10/08 08:49:32;;;;;;;;;;;22.30;91.60;;;;;;5013165;28;20318;-69
2022/10/08 08:52:01;;;;;;;;;;;21.80;90.80;;;;;;5014423;28;20237;-71
2022/10/08 08:54:27;;;;;;;;;;;22.30;91.30;;;;;;5030034;28;19928;-70
2022/10/08 08:56:53;;;;;;;;;;;23.00;90.70;;;;;;5009297;28;20638;-71
2022/10/08 08:59:28;;;;;;;;;;;23.20;90.10;;;;;;5012688;28;19921;-70
2022/10/08 09:01:57;;;;;;;;;;;23.50;90.20;;;;;;5013656;28;19921;-73
2022/10/08 09:04:25;;;;;;;;;;;24.30;88.90;;;;;;5031962;28;20036;-76
2022/10/08 09:06:51;;;;;;;;;;;24.30;86.80;;;;;;5031607;28;20384;-70
2022/10/08 09:09:26;;;;;;;;;;;24.60;85.00;;;;;;5015629;28;19932;-70
2022/10/08 09:11:51;;;;;;;;;;;24.80;86.10;;;;;;5030914;28;19928;-71
2022/10/08 09:14:41;;;;;;;;;;;25.30;84.90;;;;;;5015012;28;19929;-73
2022/10/08 09:17:13;;;;;;;;;;;25.30;85.00;;;;;;5016174;28;19943;-73
2022/10/08 09:19:39;;;;;;;;;;;25.30;83.90;;;;;;5014397;28;19940;-74
2022/10/08 09:22:12;;;;;;;;;;;24.80;84.40;;;;;;5015508;28;20296;-77
2022/10/08 09:24:38;;;;;;;;;;;24.90;84.60;;;;;;5030722;28;20287;-75
2022/10/08 09:27:10;;;;;;;;;;;25.30;84.10;;;;;;5033354;28;19921;-76
2022/10/08 09:29:36;;;;;;;;;;;25.30;82.40;;;;;;5031720;28;19929;-75
2022/10/08 09:32:02;;;;;;;;;;;25.60;84.60;;;;;;5031041;28;20727;-72
2022/10/08 09:34:28;;;;;;;;;;;26.00;83.30;;;;;;5014444;28;20024;-73
2022/10/08 09:37:01;;;;;;;;;;;26.30;83.80;;;;;;5015466;28;20016;-79
2022/10/08 09:39:31;;;;;;;;;;;26.70;81.40;;;;;;5032377;28;19967;-79
2022/10/08 09:42:06;;;;;;;;;;;27.20;79.50;;;;;;5013493;28;19921;-80
2022/10/08 09:44:42;;;;;;;;;;;26.80;78.10;;;;;;5031344;28;19921;-72
2022/10/08 09:47:10;;;;;;;;;;;26.70;78.70;;;;;;5031798;28;19927;-72
2022/10/08 09:49:38;;;;;;;;;;;26.90;78.90;;;;;;5009175;28;20343;-72
2022/10/08 09:52:09;;;;;;;;;;;26.40;77.30;;;;;;5024707;28;20008;-71
2022/10/08 09:54:55;;;;;;;;;;;26.30;78.10;;;;;;4997555;28;19972;-71
2022/10/08 09:57:21;;;;;;;;;;;26.60;78.40;;;;;;4977301;28;19921;-71
2022/10/08 09:59:51;;;;;;;;;;;26.50;80.60;;;;;;5007198;28;20340;-72
2022/10/08 10:02:37;;;;;;;;;;;27.00;77.40;;;;;;5007163;28;19948;-72
2022/10/08 10:05:15;;;;;;;;;;;26.90;77.80;;;;;;5024194;28;19931;-71
2022/10/08 10:07:42;;;;;;;;;;;26.30;79.90;;;;;;5017184;28;20321;-72
2022/10/08 10:10:21;;;;;;;;;;;26.60;78.10;;;;;;4999224;28;19921;-71
2022/10/08 10:12:49;;;;;;;;;;;26.30;76.00;;;;;;5001998;28;19921;-81
2022/10/08 10:15:20;;;;;;;;;;;26.00;78.20;;;;;;5024417;28;19978;-71
2022/10/08 10:17:51;;;;;;;;;;;26.60;79.00;;;;;;5004600;28;19925;-74
2022/10/08 10:20:22;;;;;;;;;;;26.90;76.70;;;;;;5006751;28;19921;-73
2022/10/08 10:23:09;;;;;;;;;;;27.50;78.10;;;;;;5016893;28;19925;-70
2022/10/08 10:25:37;;;;;;;;;;;27.80;76.00;;;;;;4993277;28;19921;-71
2022/10/08 10:28:14;;;;;;;;;;;27.60;76.50;;;;;;5006384;28;20007;-68
2022/10/08 10:30:48;;;;;;;;;;;26.70;75.30;;;;;;5018136;28;19921;-69
2022/10/08 10:33:17;;;;;;;;;;;27.10;77.40;;;;;;5000785;28;20296;-71
2022/10/08 10:36:04;;;;;;;;;;;27.20;77.30;;;;;;4999069;28;19975;-70
2022/10/08 10:38:31;;;;;;;;;;;27.30;76.00;;;;;;5023991;28;19936;-69
2022/10/08 10:41:16;;;;;;;;;;;27.70;76.00;;;;;;5022443;28;20403;-71
2022/10/08 10:43:44;;;;;;;;;;;27.70;76.80;;;;;;5014711;28;19921;-70
2022/10/08 10:46:18;;;;;;;;;;;27.30;78.50;;;;;;4995071;28;19921;-71
2022/10/08 10:48:44;;;;;;;;;;;27.30;77.70;;;;;;5003463;28;19921;-71
2022/10/08 10:51:10;;;;;;;;;;;26.60;77.00;;;;;;5012349;28;19975;-70
2022/10/08 10:53:42;;;;;;;;;;;26.80;77.70;;;;;;5011253;28;19925;-70
2022/10/08 10:56:14;;;;;;;;;;;26.70;77.60;;;;;;5024230;28;20011;-72
2022/10/08 10:59:02;;;;;;;;;;;26.80;79.10;;;;;;5013794;28;19921;-72
2022/10/08 11:01:57;;;;;;;;;;;27.10;77.60;;;;;;5004210;28;20292;-71
2022/10/08 11:04:29;;;;;;;;;;;27.40;76.00;;;;;;5016621;28;20324;-70
2022/10/08 11:07:25;;;;;;;;;;;27.20;77.60;;;;;;5013817;28;19932;-71
2022/10/08 11:09:59;;;;;;;;;;;27.20;77.50;;;;;;5013501;28;19928;-71
2022/10/08 11:12:25;;;;;;;;;;;27.90;76.30;;;;;;5012913;28;20012;-69
2022/10/08 11:14:56;;;;;;;;;;;28.10;74.80;;;;;;5014978;28;20011;-70
2022/10/08 11:17:22;;;;;;;;;;;27.70;76.20;;;;;;5014020;28;19928;-73
2022/10/08 11:19:57;;;;;;;;;;;27.40;75.80;;;;;;5032717;28;19917;-68
2022/10/08 11:22:42;;;;;;;;;;;27.30;77.90;;;;;;5014133;28;19925;-68
2022/10/08 11:25:27;;;;;;;;;;;27.30;76.30;;;;;;5006002;28;19925;-69
2022/10/08 11:27:55;;;;;;;;;;;27.00;75.20;;;;;;5030688;28;19979;-71
2022/10/08 11:30:26;;;;;;;;;;;27.10;75.50;;;;;;5030566;28;19931;-72
2022/10/08 11:32:52;;;;;;;;;;;26.60;74.70;;;;;;5013400;28;20373;-71
2022/10/08 11:35:26;;;;;;;;;;;25.60;75.60;;;;;;5013542;28;20395;-72
2022/10/08 11:38:02;;;;;;;;;;;25.00;77.20;;;;;;5014011;28;19925;-74
2022/10/08 11:40:33;;;;;;;;;;;24.60;77.30;;;;;;5009478;28;20023;-71
2022/10/08 11:43:01;;;;;;;;;;;23.40;80.00;;;;;;5009752;28;19928;-70
2022/10/08 11:45:27;;;;;;;;;;;23.20;82.60;;;;;;5010522;28;20010;-71
2022/10/08 11:47:53;;;;;;;;;;;23.60;81.40;;;;;;5013754;28;19975;-78
2022/10/08 11:50:29;;;;;;;;;;;23.70;80.90;;;;;;5030479;28;19921;-70
2022/10/08 11:52:57;;;;;;;;;;;23.70;80.50;;;;;;5026245;28;20067;-70
2022/10/08 11:55:25;;;;;;;;;;;23.10;81.20;;;;;;5027067;28;20434;-70
2022/10/08 11:57:56;;;;;;;;;;;22.60;83.00;;;;;;5013620;28;19925;-71
2022/10/08 12:00:27;;;;;;;;;;;21.80;85.30;;;;;;5008586;28;19928;-67
2022/10/08 12:02:53;;;;;;;;;;;22.00;85.00;;;;;;5027499;28;19921;-69
2022/10/08 12:05:22;;;;;;;;;;;21.70;84.70;;;;;;5027547;28;19925;-70
2022/10/08 12:07:49;;;;;;;;;;;20.50;87.10;;;;;;5012595;28;20262;-72
2022/10/08 12:10:18;;;;;;;;;;;19.80;89.00;;;;;;5012627;28;19948;-71
2022/10/08 12:12:49;;;;;;;;;;;19.00;90.70;;;;;;5030927;28;19968;-69
2022/10/08 12:15:24;;;;;;;;;;;18.80;91.30;;;;;;5012485;28;20007;-71
2022/10/08 12:17:50;;;;;;;;;;;18.30;93.10;;;;;;5010739;28;19920;-71
2022/10/08 12:20:20;;;;;;;;;;;17.90;94.60;;;;;;5028084;28;19925;-71
2022/10/08 12:23:08;;;;;;;;;;;17.40;95.50;;;;;;5012271;28;19921;-69
2022/10/08 12:25:38;;;;;;;;;;;17.00;95.80;;;;;;5017662;28;19998;-68
2022/10/08 12:28:31;;;;;;;;;;;16.80;98.00;;;;;;5034223;28;19921;-68
2022/10/08 12:31:00;;;;;;;;;;;16.80;97.20;;;;;;5011158;28;20373;-69
2022/10/08 12:33:26;;;;;;;;;;;17.50;98.40;;;;;;5016728;28;19921;-68
2022/10/08 12:35:58;;;;;;;;;;;18.50;97.50;;;;;;5034676;28;19921;-67
2022/10/08 12:38:29;;;;;;;;;;;19.00;96.20;;;;;;5016985;28;19924;-69
2022/10/08 12:41:13;;;;;;;;;;;19.50;95.00;;;;;;5016712;28;20019;-69
2022/10/08 12:43:49;;;;;;;;;;;19.40;95.10;;;;;;5034251;28;20324;-68
2022/10/08 12:46:20;;;;;;;;;;;18.80;94.30;;;;;;5031687;28;19921;-68
2022/10/08 12:48:56;;;;;;;;;;;18.80;95.10;;;;;;5012980;28;19968;-68
2022/10/08 12:51:22;;;;;;;;;;;17.60;95.10;;;;;;5031734;28;20436;-69
2022/10/08 12:53:48;;;;;;;;;;;17.20;95.30;;;;;;5034366;28;20059;-68
2022/10/08 12:56:25;;;;;;;;;;;17.20;95.90;;;;;;5016589;28;20373;-69
2022/10/08 12:58:51;;;;;;;;;;;17.40;96.60;;;;;;5016933;28;19921;-68
2022/10/08 13:01:18;;;;;;;;;;;18.00;96.60;;;;;;5016695;28;19921;-69
2022/10/08 13:03:44;;;;;;;;;;;18.50;94.90;;;;;;5034213;28;19929;-69
2022/10/08 13:06:23;;;;;;;;;;;19.00;94.50;;;;;;5034395;28;20599;-68
2022/10/08 13:08:49;;;;;;;;;;;19.30;93.50;;;;;;5034733;28;19921;-69
2022/10/08 13:11:15;;;;;;;;;;;19.10;93.00;;;;;;5016303;28;20323;-70
2022/10/08 13:13:41;;;;;;;;;;;18.80;93.20;;;;;;5034332;28;19964;-69
2022/10/08 13:16:08;;;;;;;;;;;18.60;93.30;;;;;;5032597;28;19921;-70
2022/10/08 13:18:34;;;;;;;;;;;18.40;93.60;;;;;;5033737;28;19957;-68
2022/10/08 13:21:03;;;;;;;;;;;17.90;93.60;;;;;;5010073;28;19925;-70
2022/10/08 13:23:33;;;;;;;;;;;17.40;94.50;;;;;;5015480;28;19921;-69
2022/10/08 13:25:59;;;;;;;;;;;17.00;95.10;;;;;;5016040;28;19972;-69
2022/10/08 13:28:25;;;;;;;;;;;16.90;95.10;;;;;;5005512;28;20441;-71
2022/10/08 13:30:53;;;;;;;;;;;17.00;95.10;;;;;;5032867;28;19960;-71
2022/10/08 13:33:20;;;;;;;;;;;17.10;95.40;;;;;;5033873;28;19928;-70
2022/10/08 13:35:54;;;;;;;;;;;17.00;95.80;;;;;;5015726;28;19928;-70
2022/10/08 13:38:22;;;;;;;;;;;16.80;95.40;;;;;;5014714;28;20007;-69
2022/10/08 13:40:51;;;;;;;;;;;16.60;95.20;;;;;;5033547;28;19921;-68
2022/10/08 13:43:17;;;;;;;;;;;16.50;95.70;;;;;;5033637;28;19971;-69
2022/10/08 13:45:43;;;;;;;;;;;16.40;95.90;;;;;;5014844;28;19961;-67
2022/10/08 13:48:10;;;;;;;;;;;16.30;96.20;;;;;;5016096;28;19971;-69
2022/10/08 13:50:40;;;;;;;;;;;16.30;96.30;;;;;;5015419;28;19921;-68
2022/10/08 13:53:09;;;;;;;;;;;16.30;96.00;;;;;;5027559;28;20016;-71
2022/10/08 13:55:35;;;;;;;;;;;16.20;96.10;;;;;;5032015;28;19991;-70
2022/10/08 13:58:02;;;;;;;;;;;16.30;95.60;;;;;;5015746;28;19921;-69
2022/10/08 14:00:31;;;;;;;;;;;16.30;95.90;;;;;;5033067;28;20003;-69
2022/10/08 14:02:57;;;;;;;;;;;16.40;96.90;;;;;;5015670;28;19963;-70
2022/10/08 14:05:23;;;;;;;;;;;16.50;97.20;;;;;;5031653;28;19968;-70
2022/10/08 14:07:53;;;;;;;;;;;16.70;96.60;;;;;;5032910;28;19927;-72
2022/10/08 14:10:19;;;;;;;;;;;16.60;96.30;;;;;;5033579;28;19966;-70
2022/10/08 14:12:44;;;;;;;;;;;16.40;96.40;;;;;;5016250;28;20343;-69
2022/10/08 14:15:15;;;;;;;;;;;16.20;96.20;;;;;;5013942;28;19921;-68
2022/10/08 14:17:40;;;;;;;;;;;15.90;96.80;;;;;;5011776;28;19928;-70
2022/10/08 14:20:07;;;;;;;;;;;15.80;96.40;;;;;;5005047;28;19929;-69
2022/10/08 14:22:37;;;;;;;;;;;15.60;96.60;;;;;;5029080;28;19928;-71
2022/10/08 14:25:04;;;;;;;;;;;15.50;96.80;;;;;;5014871;28;19932;-70
2022/10/08 14:27:30;;;;;;;;;;;15.40;97.30;;;;;;5013819;28;20280;-69